Terminal Aerodrome Forecast
Issued by NWS New Orleans/Baton Rouge, LA

Home | Current Version | Previous Version | Text Only | Print | Product List | Glossary On
Versions: 1 2 3 4 5 6 7 8 9 10 11 12 13 14 15 16 17 18 19 20
000
FTUS44 KLIX 251100 RRA
TAFNEW
TAF
KNEW 251140Z 2512/2612 20006KT P6SM SKC
     FM251500 25012G20KT P6SM FEW250
     FM260100 30021G27KT P6SM FEW250
     FM260300 32017KT P6SM SKC=

USA.gov is the U.S. government's official web portal to all federal, state and local government web resources and services.